Fosterville, TN (37063)

4:53 AM CDT on October 20, 2014 (GMT -0500)
RIVERDALE | Change Station
CLOSE
Current Station
Personal Weather Station
Location: Murfreesboro, TN
Elevation: 617 ft
Nearby Weather Stations

Elev 617 ft 35.81 °N, 86.41 °W | Updated 15 seconds ago

Clear
Clear
43.3 °F
Feels Like 43 °F
N
0.0
Wind Variable Wind from North
Gusts 0.0 mph

Today
High -- | Low -- °F
--% Chance of Precip.
Yesterday
High -- | Low -- °F
Precip. -- in
6:56 AM 6:03 PM
Waning Crescent, 12% visible
Pressure 30.10 in
Visibility 2.0 miles
Clouds Clear
Windchill 43 °F
Dew Point 43 °F
Humidity 99%
Rainfall 0.00 in
Snow Depth Not available.
UV 0.0 out of 12
Pollen 2.10 out of 12
PM2.5 Moderate
Flu Activity Sporadic
SPECI KMQY 200944Z AUTO 00000KT 2SM BR CLR 06/06 A3010 RMK AO2 VIS 3/4V5

More Conditions Fewer Conditions

Pressure 30.10 in
Visibility 2.0 miles
Clouds Clear
Windchill 43 °F
Dew Point 43 °F
Humidity 99%
Rainfall 0.00 in
Snow Depth Not available.
UV 0.0 out of 12
Pollen 2.10 out of 12
PM2.5 Moderate
Flu Activity Sporadic
SPECI KMQY 200944Z AUTO 00000KT 2SM BR CLR 06/06 A3010 RMK AO2 VIS 3/4V5

More Conditions Fewer Conditions

10-Day Weather Forecast

Almanac

Astronomy

Oct. 20, 2014 Rise Set
Actual Time 6:56 AM CDT 6:03 PM CDT
Civil Twilight 6:30 AM CDT 6:29 PM CDT
Nautical Twilight 6:00 AM CDT 6:59 PM CDT
Astronomical Twilight 5:31 AM CDT 7:28 PM CDT
Moon 3:50 AM CDT 4:20 PM CDT
Length of Visible Light 11h 58m
Length of Day
11h 07m
Waning Crescent, 12% of the Moon is Illuminated
Today
Waning Crescent
Oct 23
New
Oct 30
First Quarter
Nov 6
Full
Nov 14
Last Quarter

Today's Extremes

State Highs State Lows

Community

WunderPhotos

Upload Photos

1,763,325 photos uploaded!

Nearby

Air Quality

  Air Quality AQ Index Pollutant
Yesterday Good
PM2.5
Yesterday Good
OZONE
Current Moderate
PM2.5
Monday Good
PM2.5
Monday Good
OZONE
Tuesday Good
PM2.5
Tuesday Good
OZONE

Snow Depth

Station Depth Elevation
No new snow has been reported.

Earthquake Activity

City Distance Mag. Time & Date
No recent earthquake activity has been reported nearby.
Minimum magnitude displayed is 2.5.

Coastal Water Temperatures

Place Temperature
No Stations Reporting

Nearby Weather Stations